Terminal Aerodrome Forecast
Issued by NWS Topeka, KS

Home | Current Version | Previous Version | Text Only | Print | Product List | Glossary On
Versions: 1 2 3 4 5 6 7 8 9 10 11 12 13 14 15 16 17 18 19 20 21 22 23 24 25 26
000
FTUS43 KTOP 211500 AAA
TAFTOP
TAF AMD
KTOP 211535Z 2116/2212 08005KT P6SM FEW200
     FM211600 10007KT P6SM BKN012
     FM211700 11006KT 6SM -SHRA BR OVC015
     FM220100 12004KT 5SM -DZ BR OVC007
     FM220700 20006KT 4SM BR OVC022=

USA.gov is the U.S. government's official web portal to all federal, state and local government web resources and services.